Reid, Mississippi
Current Conditions -  °F | °C
As of 8:53 PM on Monday 22 Dec 2014 (Local Time) from KTUP Reporting Station
Haze Haze  
Wind Chill: 14°   Ceiling: 200
Heat Index: 14°   Visibility: 4mi
Dew Point: 13°   Wind: 12mph
Humidity: 93%   Direction: 200°SSW
Pressure: 29.7"   Gusts: NA
Location:  33.9472°N, 89.1968°W
Report Text: KTUP 230253Z 20010KT 4SM BR OVC002 14/13 A2970 RMK AO2 SLP054 60001 T01390128 50004
Loading
Personal Weather Stations






























Interactive Weather Map New forecast layout! Learn more

10-Day Weather Forecast

Advertisements
Track Severe Weather on mobile